createdAt,value
2023-02-05T00:00:17.737Z,2.80
2023-02-05T00:01:17.727Z,2.90
2023-02-05T00:02:17.753Z,3.70
2023-02-05T00:03:17.754Z,4.50
2023-02-05T00:04:17.702Z,4.20
2023-02-05T00:05:17.699Z,5.20
2023-02-05T00:06:17.691Z,2.80
2023-02-05T00:07:17.682Z,4.20
2023-02-05T00:08:17.665Z,3.60
2023-02-05T00:09:17.660Z,3.50
2023-02-05T00:10:17.661Z,3.60
2023-02-05T00:11:17.673Z,3.50
2023-02-05T00:12:17.646Z,3.40
2023-02-05T00:13:17.635Z,3.90
2023-02-05T00:14:17.626Z,4.40
2023-02-05T00:15:17.615Z,3.60
2023-02-05T00:16:17.647Z,2.70
2023-02-05T00:17:17.607Z,3.30
2023-02-05T00:18:17.596Z,3.30
2023-02-05T00:19:17.583Z,3.70
2023-02-05T00:20:17.581Z,2.70
2023-02-05T00:21:17.563Z,2.50
2023-02-05T00:22:17.561Z,3.40
2023-02-05T00:23:17.551Z,2.60
2023-02-05T00:24:17.538Z,3.10
2023-02-05T00:25:17.532Z,3.00
2023-02-05T00:26:17.524Z,3.80
2023-02-05T00:27:17.537Z,3.40
2023-02-05T00:28:17.543Z,3.30
2023-02-05T00:29:17.504Z,2.10
2023-02-05T00:30:17.501Z,3.90
2023-02-05T00:31:17.603Z,3.00
2023-02-05T00:32:17.485Z,2.80
2023-02-05T00:33:17.475Z,3.00
2023-02-05T00:34:17.482Z,4.40
2023-02-05T00:35:17.445Z,3.00
2023-02-05T00:36:17.450Z,2.40
2023-02-05T00:37:17.434Z,2.40
2023-02-05T00:38:17.430Z,3.30
2023-02-05T00:39:17.441Z,4.90
2023-02-05T00:40:17.411Z,3.60
2023-02-05T00:41:17.405Z,2.60
2023-02-05T00:42:17.404Z,4.60
2023-02-05T00:43:17.384Z,4.70
2023-02-05T00:44:17.387Z,3.50
2023-02-05T00:45:17.378Z,3.00
2023-02-05T00:46:17.415Z,3.50
2023-02-05T00:47:17.356Z,3.60
2023-02-05T00:48:17.350Z,2.60
2023-02-05T00:49:17.348Z,3.70
2023-02-05T00:50:17.330Z,4.20
2023-02-05T00:51:17.332Z,3.70
2023-02-05T00:52:17.320Z,2.80
2023-02-05T00:53:17.307Z,3.10
2023-02-05T00:54:17.321Z,2.60
2023-02-05T00:55:17.292Z,3.20
2023-02-05T00:56:17.301Z,3.20
2023-02-05T00:57:17.281Z,3.90
2023-02-05T00:58:17.276Z,3.20
2023-02-05T00:59:17.258Z,3.60
2023-02-05T01:00:17.248Z,3.20
2023-02-05T01:01:17.286Z,2.90
2023-02-05T01:02:17.265Z,2.70
2023-02-05T01:03:17.223Z,3.70
2023-02-05T01:04:17.224Z,2.70
2023-02-05T01:05:17.213Z,3.50
2023-02-05T01:06:17.219Z,2.70
2023-02-05T01:07:17.195Z,3.90
2023-02-05T01:08:17.191Z,3.10
2023-02-05T01:09:17.176Z,3.80
2023-02-05T01:10:17.170Z,3.60
2023-02-05T01:11:17.165Z,3.60
2023-02-05T01:12:17.166Z,3.10
2023-02-05T01:13:18.147Z,2.20
2023-02-05T01:14:17.144Z,2.80
2023-02-05T01:15:17.137Z,3.50
2023-02-05T01:16:17.269Z,3.00
2023-02-05T01:17:17.110Z,2.30
2023-02-05T01:18:17.111Z,2.80
2023-02-05T01:19:17.105Z,4.10
2023-02-05T01:20:17.094Z,3.20
2023-02-05T01:21:17.083Z,3.00
2023-02-05T01:22:17.068Z,2.80
2023-02-05T01:23:17.100Z,3.00
2023-02-05T01:24:17.060Z,3.90
2023-02-05T01:25:17.048Z,4.00
2023-02-05T01:26:17.071Z,2.80
2023-02-05T01:27:17.036Z,3.40
2023-02-05T01:28:17.096Z,3.10
2023-02-05T01:29:17.032Z,3.10
2023-02-05T01:30:17.021Z,3.70
2023-02-05T01:31:17.137Z,3.40
2023-02-05T01:32:16.994Z,3.90
2023-02-05T01:33:17.020Z,3.00
2023-02-05T01:34:16.987Z,2.50
2023-02-05T01:35:16.970Z,3.30
2023-02-05T01:36:16.965Z,3.30
2023-02-05T01:37:16.945Z,3.80
2023-02-05T01:38:16.949Z,2.90
2023-02-05T01:39:16.935Z,3.50
2023-02-05T01:40:16.933Z,3.20
2023-02-05T01:41:16.926Z,3.80
2023-02-05T01:42:16.909Z,3.60
2023-02-05T01:43:16.901Z,3.00
2023-02-05T01:44:16.903Z,3.20
2023-02-05T01:45:16.878Z,3.10
2023-02-05T01:46:16.903Z,2.70
2023-02-05T01:47:16.869Z,4.20
2023-02-05T01:48:16.860Z,2.80
2023-02-05T01:49:16.852Z,3.30
2023-02-05T01:50:16.840Z,3.30
2023-02-05T01:51:16.831Z,3.00
2023-02-05T01:52:16.830Z,4.30
2023-02-05T01:53:16.815Z,3.10
2023-02-05T01:54:16.799Z,2.70
2023-02-05T01:55:16.798Z,3.10
2023-02-05T01:56:16.787Z,4.00
2023-02-05T01:57:16.788Z,3.30
2023-02-05T01:58:16.768Z,3.10
2023-02-05T01:59:16.757Z,2.90
2023-02-05T02:00:16.760Z,2.90
2023-02-05T02:01:16.782Z,3.30
2023-02-05T02:02:16.733Z,3.60
2023-02-05T02:03:16.739Z,3.50
2023-02-05T02:04:16.723Z,3.50
2023-02-05T02:05:16.762Z,2.20
2023-02-05T02:06:16.714Z,2.60
2023-02-05T02:07:16.726Z,3.60
2023-02-05T02:08:16.682Z,3.10
2023-02-05T02:09:16.694Z,3.50
2023-02-05T02:10:16.679Z,3.80
2023-02-05T02:11:16.674Z,2.90
2023-02-05T02:12:16.662Z,3.10
2023-02-05T02:13:16.647Z,3.00
2023-02-05T02:14:16.655Z,3.30
2023-02-05T02:15:16.630Z,2.40
2023-02-05T02:16:16.637Z,3.10
2023-02-05T02:17:16.632Z,2.10
2023-02-05T02:18:16.632Z,3.40
2023-02-05T02:19:16.591Z,3.00
2023-02-05T02:20:16.588Z,2.50
2023-02-05T02:21:16.580Z,3.20
2023-02-05T02:22:16.582Z,3.40
2023-02-05T02:23:16.580Z,3.30
2023-02-05T02:24:16.566Z,3.00
2023-02-05T02:25:16.570Z,3.90
2023-02-05T02:26:16.545Z,2.80
2023-02-05T02:27:16.529Z,2.80
2023-02-05T02:28:16.531Z,3.70
2023-02-05T02:29:16.511Z,2.40
2023-02-05T02:30:16.513Z,3.50
2023-02-05T02:31:16.576Z,3.00
2023-02-05T02:32:16.493Z,2.90
2023-02-05T02:33:16.492Z,2.70
2023-02-05T02:34:16.463Z,3.40
2023-02-05T02:35:16.497Z,3.00
2023-02-05T02:36:16.460Z,2.90
2023-02-05T02:37:16.458Z,3.00
2023-02-05T02:38:16.451Z,3.00
2023-02-05T02:39:16.432Z,3.20
2023-02-05T02:40:16.414Z,2.70
2023-02-05T02:41:16.428Z,2.80
2023-02-05T02:42:16.408Z,2.80
2023-02-05T02:43:16.401Z,3.10
2023-02-05T02:44:16.405Z,2.80
2023-02-05T02:45:16.380Z,3.20
2023-02-05T02:46:16.405Z,3.30
2023-02-05T02:47:16.372Z,3.00
2023-02-05T02:48:16.360Z,2.80
2023-02-05T02:49:16.353Z,3.20
2023-02-05T02:50:16.354Z,2.40
2023-02-05T02:51:16.335Z,2.90
2023-02-05T02:52:16.325Z,3.80
2023-02-05T02:53:16.321Z,3.50
2023-02-05T02:54:16.315Z,3.50
2023-02-05T02:55:16.301Z,3.30
2023-02-05T02:56:16.306Z,3.50
2023-02-05T02:57:16.287Z,3.40
2023-02-05T02:58:16.281Z,3.50
2023-02-05T02:59:16.271Z,2.70
2023-02-05T03:00:16.276Z,2.80
2023-02-05T03:01:16.264Z,2.40
2023-02-05T03:02:16.247Z,3.30
2023-02-05T03:03:16.261Z,2.80
2023-02-05T03:04:16.245Z,2.40
2023-02-05T03:05:16.221Z,2.30
2023-02-05T03:06:16.215Z,2.80
2023-02-05T03:07:16.216Z,3.40
2023-02-05T03:08:16.195Z,2.70
2023-02-05T03:09:16.198Z,4.10
2023-02-05T03:10:16.184Z,3.10
2023-02-05T03:11:16.176Z,3.10
2023-02-05T03:12:16.182Z,4.50
2023-02-05T03:13:16.170Z,4.00
2023-02-05T03:14:16.144Z,3.10
2023-02-05T03:15:16.139Z,2.40
2023-02-05T03:16:16.171Z,3.40
2023-02-05T03:17:16.122Z,3.60
2023-02-05T03:18:16.112Z,3.80
2023-02-05T03:19:16.114Z,2.80
2023-02-05T03:20:16.105Z,3.50
2023-02-05T03:21:16.083Z,3.20
2023-02-05T03:22:16.083Z,3.30
2023-02-05T03:23:16.071Z,3.10
2023-02-05T03:24:16.068Z,3.10
2023-02-05T03:25:16.052Z,2.90
2023-02-05T03:26:16.046Z,3.60
2023-02-05T03:27:16.046Z,3.30
2023-02-05T03:28:16.091Z,2.70
2023-02-05T03:29:16.029Z,3.70
2023-02-05T03:30:16.004Z,3.00
2023-02-05T03:31:16.090Z,2.50
2023-02-05T03:32:16.002Z,2.60
2023-02-05T03:33:15.995Z,2.70
2023-02-05T03:34:15.981Z,3.00
2023-02-05T03:35:15.976Z,3.10
2023-02-05T03:36:15.968Z,3.00
2023-02-05T03:37:15.955Z,3.10
2023-02-05T03:38:15.937Z,2.80
2023-02-05T03:39:15.946Z,4.10
2023-02-05T03:40:15.934Z,2.60
2023-02-05T03:41:15.943Z,3.20
2023-02-05T03:42:15.913Z,3.30
2023-02-05T03:43:15.890Z,2.30
2023-02-05T03:44:15.899Z,3.10
2023-02-05T03:45:15.876Z,3.60
2023-02-05T03:46:15.914Z,3.10
2023-02-05T03:47:15.863Z,2.70
2023-02-05T03:48:15.863Z,3.00
2023-02-05T03:49:15.867Z,3.00
2023-02-05T03:50:15.853Z,2.70
2023-02-05T03:51:15.836Z,2.40
2023-02-05T03:52:15.813Z,2.40
2023-02-05T03:53:15.812Z,3.60
2023-02-05T03:54:15.804Z,3.10
2023-02-05T03:55:15.805Z,3.30
2023-02-05T03:56:15.781Z,2.80
2023-02-05T03:57:15.771Z,2.40
2023-02-05T03:58:15.773Z,2.10
2023-02-05T03:59:15.769Z,2.90
2023-02-05T04:00:15.752Z,2.40
2023-02-05T04:01:15.870Z,3.00
2023-02-05T04:02:15.779Z,3.80
2023-02-05T04:03:15.722Z,2.90
2023-02-05T04:04:15.711Z,4.30
2023-02-05T04:05:15.696Z,1.80
2023-02-05T04:06:15.711Z,3.30
2023-02-05T04:07:15.687Z,2.20
2023-02-05T04:08:15.684Z,3.80
2023-02-05T04:09:15.659Z,3.20
2023-02-05T04:10:15.668Z,2.40
2023-02-05T04:11:15.656Z,2.00
2023-02-05T04:12:15.636Z,3.20
2023-02-05T04:13:15.644Z,3.00
2023-02-05T04:14:15.635Z,3.40
2023-02-05T04:15:15.628Z,4.10
2023-02-05T04:16:15.677Z,2.30
2023-02-05T04:17:15.599Z,2.90
2023-02-05T04:18:15.588Z,3.10
2023-02-05T04:19:15.579Z,3.10
2023-02-05T04:20:15.575Z,3.10
2023-02-05T04:21:15.560Z,3.80
2023-02-05T04:22:15.567Z,2.30
2023-02-05T04:23:15.570Z,2.90
2023-02-05T04:24:15.618Z,2.90
2023-02-05T04:25:15.528Z,4.50
2023-02-05T04:26:15.538Z,2.80
2023-02-05T04:27:15.529Z,3.10
2023-02-05T04:28:15.608Z,3.30
2023-02-05T04:29:15.492Z,1.90
2023-02-05T04:30:15.504Z,3.00
2023-02-05T04:31:15.586Z,2.90
2023-02-05T04:32:15.487Z,4.10
2023-02-05T04:33:15.468Z,4.60
2023-02-05T04:34:15.463Z,2.10
2023-02-05T04:35:15.459Z,2.90
2023-02-05T04:36:15.487Z,3.10
2023-02-05T04:37:15.446Z,2.50
2023-02-05T04:38:15.421Z,3.40
2023-02-05T04:39:15.427Z,2.80
2023-02-05T04:40:15.409Z,3.10
2023-02-05T04:41:15.402Z,3.60
2023-02-05T04:42:15.400Z,3.20
2023-02-05T04:43:15.382Z,3.50
2023-02-05T04:44:15.383Z,2.90
2023-02-05T04:45:15.375Z,3.80
2023-02-05T04:46:15.407Z,3.20
2023-02-05T04:47:15.352Z,3.60
2023-02-05T04:48:15.359Z,3.20
2023-02-05T04:49:15.333Z,2.90
2023-02-05T04:50:15.318Z,2.50
2023-02-05T04:51:15.328Z,3.10
2023-02-05T04:52:15.313Z,2.90
2023-02-05T04:53:15.302Z,3.10
2023-02-05T04:54:15.294Z,3.20
2023-02-05T04:55:15.283Z,2.90
2023-02-05T04:56:15.286Z,4.10
2023-02-05T04:57:15.279Z,3.70
2023-02-05T04:58:15.253Z,3.50
2023-02-05T04:59:15.247Z,3.50
2023-02-05T05:00:15.233Z,3.80
2023-02-05T05:01:15.411Z,3.10
2023-02-05T05:02:15.269Z,2.40
2023-02-05T05:03:15.216Z,4.30
2023-02-05T05:04:15.227Z,2.60
2023-02-05T05:05:15.195Z,2.60
2023-02-05T05:06:15.207Z,2.70
2023-02-05T05:07:15.194Z,2.90
2023-02-05T05:08:15.173Z,3.10
2023-02-05T05:09:15.181Z,3.10
2023-02-05T05:10:15.170Z,2.50
2023-02-05T05:11:15.152Z,2.90
2023-02-05T05:12:15.143Z,3.40
2023-02-05T05:13:15.128Z,3.70
2023-02-05T05:14:15.130Z,3.60
2023-02-05T05:15:15.110Z,3.20
2023-02-05T05:16:15.164Z,3.00
2023-02-05T05:17:15.102Z,2.70
2023-02-05T05:18:15.090Z,3.40
2023-02-05T05:19:15.324Z,2.80
2023-02-05T05:20:15.078Z,3.90
2023-02-05T05:21:15.083Z,3.10
2023-02-05T05:22:15.067Z,2.80
2023-02-05T05:23:15.040Z,3.00
2023-02-05T05:24:15.041Z,3.80
2023-02-05T05:25:15.038Z,3.40
2023-02-05T05:26:15.019Z,3.90
2023-02-05T05:27:15.012Z,3.00
2023-02-05T05:28:15.092Z,2.40
2023-02-05T05:29:15.000Z,2.30
2023-02-05T05:30:15.013Z,2.90
2023-02-05T05:31:15.009Z,2.90
2023-02-05T05:32:15.024Z,1.90
2023-02-05T05:33:14.952Z,3.00
2023-02-05T05:34:14.966Z,3.40
2023-02-05T05:35:14.951Z,2.90
2023-02-05T05:36:14.945Z,3.00
2023-02-05T05:37:14.931Z,3.90
2023-02-05T05:38:14.922Z,2.80
2023-02-05T05:39:14.914Z,3.00
2023-02-05T05:40:14.903Z,2.30
2023-02-05T05:41:14.901Z,3.70
2023-02-05T05:42:14.891Z,3.00
2023-02-05T05:43:14.873Z,2.60
2023-02-05T05:44:14.871Z,2.90
2023-02-05T05:45:14.860Z,2.90
2023-02-05T05:46:14.887Z,2.60
2023-02-05T05:47:14.843Z,2.60
2023-02-05T05:48:14.833Z,4.00
2023-02-05T05:49:14.835Z,2.90
2023-02-05T05:50:14.838Z,3.00
2023-02-05T05:51:14.809Z,2.50
2023-02-05T05:52:14.805Z,3.30
2023-02-05T05:53:14.791Z,2.80
2023-02-05T05:54:14.791Z,2.90
2023-02-05T05:55:14.769Z,3.10
2023-02-05T05:56:14.770Z,3.80
2023-02-05T05:57:14.767Z,2.90
2023-02-05T05:58:14.743Z,2.80
2023-02-05T05:59:14.757Z,2.80
2023-02-05T06:00:14.736Z,3.90
2023-02-05T06:01:14.720Z,2.50
2023-02-05T06:02:14.744Z,2.90
2023-02-05T06:03:14.716Z,3.50
2023-02-05T06:04:14.793Z,2.50
2023-02-05T06:05:14.687Z,3.10
2023-02-05T06:06:14.680Z,2.70
2023-02-05T06:07:14.672Z,2.80
2023-02-05T06:08:14.657Z,2.40
2023-02-05T06:09:14.653Z,3.60
2023-02-05T06:10:14.640Z,2.60
2023-02-05T06:11:14.635Z,3.30
2023-02-05T06:12:14.618Z,2.20
2023-02-05T06:13:14.609Z,3.10
2023-02-05T06:14:14.606Z,3.00
2023-02-05T06:15:14.592Z,2.50
2023-02-05T06:16:14.701Z,2.90
2023-02-05T06:17:14.582Z,2.50
2023-02-05T06:18:14.567Z,2.50
2023-02-05T06:19:14.557Z,4.40
2023-02-05T06:20:14.549Z,4.00
2023-02-05T06:21:14.543Z,2.50
2023-02-05T06:22:14.525Z,2.60
2023-02-05T06:23:14.530Z,2.90
2023-02-05T06:24:14.521Z,2.20
2023-02-05T06:25:14.509Z,2.50
2023-02-05T06:26:14.497Z,3.40
2023-02-05T06:27:14.485Z,2.00
2023-02-05T06:28:14.496Z,3.00
2023-02-05T06:29:14.462Z,2.50
2023-02-05T06:30:14.471Z,2.80
2023-02-05T06:31:14.590Z,3.00
2023-02-05T06:32:14.451Z,2.00
2023-02-05T06:33:14.444Z,3.10
2023-02-05T06:34:14.432Z,2.60
2023-02-05T06:35:14.418Z,2.50
2023-02-05T06:36:14.416Z,2.70
2023-02-05T06:37:14.405Z,2.60
2023-02-05T06:38:14.405Z,2.70
2023-02-05T06:39:14.384Z,2.10
2023-02-05T06:40:14.380Z,2.20
2023-02-05T06:41:14.380Z,1.60
2023-02-05T06:42:14.355Z,3.10
2023-02-05T06:43:14.354Z,2.80
2023-02-05T06:44:14.342Z,3.20
2023-02-05T06:45:14.336Z,2.00
2023-02-05T06:46:14.348Z,2.80
2023-02-05T06:47:14.333Z,2.00
2023-02-05T06:48:14.309Z,2.10
2023-02-05T06:49:14.307Z,2.30
2023-02-05T06:50:14.291Z,2.20
2023-02-05T06:51:14.289Z,2.70
2023-02-05T06:52:14.276Z,2.60
2023-02-05T06:53:14.256Z,2.20
2023-02-05T06:54:14.263Z,4.00
2023-02-05T06:55:14.251Z,3.00
2023-02-05T06:56:14.246Z,3.40
2023-02-05T06:57:14.239Z,2.60
2023-02-05T06:58:14.225Z,2.80
2023-02-05T06:59:14.232Z,2.60
2023-02-05T07:00:14.214Z,2.90
2023-02-05T07:01:14.208Z,2.10
2023-02-05T07:02:14.186Z,3.80
2023-02-05T07:03:14.190Z,3.00
2023-02-05T07:04:14.175Z,2.40
2023-02-05T07:05:14.178Z,2.20
2023-02-05T07:06:14.166Z,2.00
2023-02-05T07:07:14.148Z,2.20
2023-02-05T07:08:14.138Z,2.50
2023-02-05T07:09:14.149Z,2.80
2023-02-05T07:10:14.146Z,2.90
2023-02-05T07:11:14.144Z,3.10
2023-02-05T07:12:14.104Z,2.70
2023-02-05T07:13:14.111Z,2.60
2023-02-05T07:14:14.095Z,2.40
2023-02-05T07:15:14.100Z,4.10
2023-02-05T07:16:14.148Z,2.30
2023-02-05T07:17:14.069Z,2.50
2023-02-05T07:18:14.059Z,3.70
2023-02-05T07:19:14.054Z,3.60
2023-02-05T07:20:14.065Z,2.30
2023-02-05T07:21:14.033Z,2.10
2023-02-05T07:22:14.029Z,3.00
2023-02-05T07:23:14.025Z,2.40
2023-02-05T07:24:14.011Z,2.50
2023-02-05T07:25:14.018Z,3.00
2023-02-05T07:26:13.999Z,2.20
2023-02-05T07:27:13.988Z,2.00
2023-02-05T07:28:14.009Z,2.60
2023-02-05T07:29:14.058Z,2.40
2023-02-05T07:30:13.965Z,2.80
2023-02-05T07:31:14.080Z,2.50
2023-02-05T07:32:13.972Z,3.30
2023-02-05T07:33:13.953Z,2.40
2023-02-05T07:34:13.921Z,3.50
2023-02-05T07:35:13.932Z,2.90
2023-02-05T07:36:13.911Z,2.90
2023-02-05T07:37:13.906Z,2.30
2023-02-05T07:38:13.888Z,3.80
2023-02-05T07:39:13.907Z,2.60
2023-02-05T07:40:13.869Z,3.50
2023-02-05T07:41:13.870Z,2.90
2023-02-05T07:42:13.855Z,2.10
2023-02-05T07:43:13.843Z,2.60
2023-02-05T07:44:13.843Z,2.90
2023-02-05T07:45:13.826Z,3.10
2023-02-05T07:46:13.835Z,2.40
2023-02-05T07:47:13.810Z,2.40
2023-02-05T07:48:13.810Z,3.30
2023-02-05T07:49:13.789Z,4.10
2023-02-05T07:50:13.792Z,2.20
2023-02-05T07:51:13.814Z,2.70
2023-02-05T07:52:13.779Z,2.40
2023-02-05T07:53:13.761Z,1.90
2023-02-05T07:54:13.764Z,2.80
2023-02-05T07:55:13.793Z,3.10
2023-02-05T07:56:13.760Z,3.30
2023-02-05T07:57:13.722Z,2.90
2023-02-05T07:58:13.729Z,3.10
2023-02-05T07:59:13.715Z,2.70
2023-02-05T08:00:13.704Z,2.40
2023-02-05T08:01:13.735Z,2.20
2023-02-05T08:02:13.701Z,2.90
2023-02-05T08:03:13.689Z,3.40
2023-02-05T08:04:13.704Z,2.90
2023-02-05T08:05:13.653Z,3.40
2023-02-05T08:06:13.652Z,2.90
2023-02-05T08:07:13.649Z,2.50
2023-02-05T08:08:13.631Z,3.50
2023-02-05T08:09:13.625Z,3.30
2023-02-05T08:10:13.615Z,3.50
2023-02-05T08:11:13.613Z,4.40
2023-02-05T08:12:13.599Z,3.40
2023-02-05T08:13:13.583Z,3.70
2023-02-05T08:14:13.591Z,4.40
2023-02-05T08:15:13.579Z,3.50
2023-02-05T08:16:13.577Z,3.10
2023-02-05T08:17:13.552Z,4.10
2023-02-05T08:18:13.548Z,3.70
2023-02-05T08:19:13.553Z,4.80
2023-02-05T08:20:13.551Z,2.90
2023-02-05T08:21:13.526Z,4.00
2023-02-05T08:22:13.513Z,3.10
2023-02-05T08:23:13.502Z,3.20
2023-02-05T08:24:13.495Z,3.50
2023-02-05T08:25:13.493Z,4.10
2023-02-05T08:26:13.488Z,4.00
2023-02-05T08:27:13.481Z,3.10
2023-02-05T08:28:13.496Z,3.40
2023-02-05T08:29:13.456Z,3.70
2023-02-05T08:30:13.479Z,3.40
2023-02-05T08:31:13.516Z,3.40
2023-02-05T08:32:13.429Z,3.20
2023-02-05T08:33:13.452Z,3.40
2023-02-05T08:34:13.411Z,2.70
2023-02-05T08:35:13.437Z,3.40
2023-02-05T08:36:13.401Z,3.10
2023-02-05T08:37:13.391Z,3.70
2023-02-05T08:38:13.388Z,2.90
2023-02-05T08:39:13.377Z,3.30
2023-02-05T08:40:13.360Z,3.70
2023-02-05T08:41:13.351Z,3.80
2023-02-05T08:42:13.353Z,3.90
2023-02-05T08:43:13.343Z,2.60
2023-02-05T08:44:13.333Z,4.20
2023-02-05T08:45:13.320Z,2.20
2023-02-05T08:46:13.359Z,3.70
2023-02-05T08:47:13.304Z,3.60
2023-02-05T08:48:13.302Z,4.20
2023-02-05T08:49:13.286Z,4.20
2023-02-05T08:50:13.285Z,3.00
2023-02-05T08:51:13.272Z,3.80
2023-02-05T08:52:13.263Z,4.00
2023-02-05T08:53:13.254Z,3.30
2023-02-05T08:54:13.509Z,3.20
2023-02-05T08:55:13.247Z,4.90
2023-02-05T08:56:13.249Z,4.00
2023-02-05T08:57:13.222Z,4.00
2023-02-05T08:58:13.222Z,4.90
2023-02-05T08:59:13.221Z,2.80
2023-02-05T09:00:13.193Z,3.20
2023-02-05T09:01:13.251Z,4.20
2023-02-05T09:02:13.183Z,3.60
2023-02-05T09:03:13.166Z,5.10
2023-02-05T09:04:13.186Z,3.30
2023-02-05T09:05:13.156Z,4.30
2023-02-05T09:06:13.153Z,4.20
2023-02-05T09:07:13.138Z,5.00
2023-02-05T09:08:13.137Z,3.90
2023-02-05T09:09:13.116Z,4.50
2023-02-05T09:10:13.113Z,3.10
2023-02-05T09:11:13.101Z,3.80
2023-02-05T09:12:13.099Z,3.00
2023-02-05T09:13:13.081Z,3.60
2023-02-05T09:14:13.076Z,3.80
2023-02-05T09:15:13.065Z,2.80
2023-02-05T09:16:13.062Z,5.50
2023-02-05T09:17:13.060Z,3.40
2023-02-05T09:18:13.032Z,5.70
2023-02-05T09:19:13.042Z,3.30
2023-02-05T09:20:13.036Z,4.10
2023-02-05T09:21:13.051Z,2.80
2023-02-05T09:22:13.012Z,3.00
2023-02-05T09:23:13.002Z,3.10
2023-02-05T09:24:12.994Z,3.10
2023-02-05T09:25:12.982Z,2.80
2023-02-05T09:26:12.972Z,3.70
2023-02-05T09:27:12.976Z,3.80
2023-02-05T09:28:12.972Z,3.70
2023-02-05T09:29:12.950Z,2.80
2023-02-05T09:30:12.972Z,2.90
2023-02-05T09:31:13.056Z,3.40
2023-02-05T09:32:12.941Z,4.60
2023-02-05T09:33:12.908Z,4.30
2023-02-05T09:34:12.904Z,4.00
2023-02-05T09:35:12.904Z,3.60
2023-02-05T09:36:12.897Z,2.60
2023-02-05T09:37:12.868Z,3.80
2023-02-05T09:38:12.860Z,2.40
2023-02-05T09:39:21.748Z,4.40
2023-02-05T09:40:20.660Z,3.40
2023-02-05T09:41:12.863Z,3.40
2023-02-05T09:42:12.842Z,2.60
2023-02-05T09:43:12.830Z,4.40
2023-02-05T09:44:12.806Z,2.70
2023-02-05T09:45:12.833Z,3.10
2023-02-05T09:46:12.832Z,4.00
2023-02-05T09:47:12.785Z,3.50
2023-02-05T09:48:12.787Z,1.60
2023-02-05T09:49:12.781Z,2.20
2023-02-05T09:50:12.767Z,2.20
2023-02-05T09:51:12.752Z,1.80
2023-02-05T09:52:12.748Z,2.00
2023-02-05T09:53:12.746Z,1.70
2023-02-05T09:54:12.724Z,2.00
2023-02-05T09:55:12.722Z,2.30
2023-02-05T09:56:12.714Z,2.20
2023-02-05T09:57:12.703Z,1.60
2023-02-05T09:58:12.692Z,1.60
2023-02-05T09:59:12.673Z,1.60
2023-02-05T10:00:12.680Z,1.80
2023-02-05T10:01:12.683Z,1.90
2023-02-05T10:02:12.649Z,2.10
2023-02-05T10:03:12.671Z,1.80
2023-02-05T10:04:12.661Z,2.30
2023-02-05T10:05:12.618Z,1.60
2023-02-05T10:06:12.613Z,1.80
2023-02-05T10:07:12.612Z,1.80
2023-02-05T10:08:12.585Z,1.80
2023-02-05T10:09:12.602Z,2.10
2023-02-05T10:10:12.574Z,1.80
2023-02-05T10:11:12.570Z,1.90
2023-02-05T10:12:12.558Z,1.40
2023-02-05T10:13:12.544Z,1.70
2023-02-05T10:14:12.535Z,1.60
2023-02-05T10:15:12.533Z,1.00
2023-02-05T10:16:12.553Z,1.50
2023-02-05T10:17:12.509Z,1.30
2023-02-05T10:18:12.512Z,1.20
2023-02-05T10:19:12.495Z,2.00
2023-02-05T10:20:12.484Z,1.90
2023-02-05T10:21:12.481Z,1.30
2023-02-05T10:22:12.465Z,1.60
2023-02-05T10:23:12.455Z,2.10
2023-02-05T10:24:12.438Z,1.30
2023-02-05T10:25:12.436Z,1.80
2023-02-05T10:26:12.473Z,1.40
2023-02-05T10:27:12.420Z,1.60
2023-02-05T10:28:12.433Z,1.30
2023-02-05T10:29:12.400Z,1.50
2023-02-05T10:30:12.399Z,1.40
2023-02-05T10:31:12.509Z,1.30
2023-02-05T10:32:12.373Z,1.40
2023-02-05T10:33:12.381Z,1.80
2023-02-05T10:34:12.357Z,1.70
2023-02-05T10:35:12.367Z,1.40
2023-02-05T10:36:12.343Z,1.60
2023-02-05T10:37:12.331Z,1.40
2023-02-05T10:38:12.313Z,1.60
2023-02-05T10:39:12.318Z,1.30
2023-02-05T10:40:12.300Z,1.80
2023-02-05T10:41:12.297Z,1.90
2023-02-05T10:42:12.294Z,1.60
2023-02-05T10:43:12.272Z,1.20
2023-02-05T10:44:12.268Z,1.20
2023-02-05T10:45:12.257Z,1.50
2023-02-05T10:46:12.247Z,1.30
2023-02-05T10:47:12.237Z,1.80
2023-02-05T10:48:12.236Z,1.40
2023-02-05T10:49:12.212Z,1.90
2023-02-05T10:50:12.206Z,1.60
2023-02-05T10:51:12.194Z,1.50
2023-02-05T10:52:12.198Z,1.50
2023-02-05T10:53:12.176Z,1.00
2023-02-05T10:54:12.166Z,1.20
2023-02-05T10:55:12.157Z,1.30
2023-02-05T10:56:12.141Z,1.60
2023-02-05T10:57:12.141Z,1.80
2023-02-05T10:58:12.139Z,1.50
2023-02-05T10:59:12.130Z,2.30
2023-02-05T11:00:12.138Z,0.90
2023-02-05T11:01:12.103Z,1.50
2023-02-05T11:02:12.091Z,1.30
2023-02-05T11:03:12.083Z,1.10
2023-02-05T11:04:12.078Z,1.90
2023-02-05T11:05:12.067Z,1.20
2023-02-05T11:06:12.054Z,1.60
2023-02-05T11:07:12.040Z,1.50
2023-02-05T11:08:12.038Z,1.30
2023-02-05T11:09:12.033Z,1.10
2023-02-05T11:10:12.015Z,2.00
2023-02-05T11:11:12.006Z,1.40
2023-02-05T11:12:12.013Z,1.70
2023-02-05T11:13:11.988Z,1.40
2023-02-05T11:14:11.985Z,1.10
2023-02-05T11:15:11.965Z,1.40
2023-02-05T11:16:11.989Z,1.00
2023-02-05T11:17:11.953Z,1.50
2023-02-05T11:18:11.939Z,1.00
2023-02-05T11:19:13.965Z,1.50
2023-02-05T11:20:11.922Z,1.00
2023-02-05T11:21:11.915Z,1.80
2023-02-05T11:22:11.902Z,1.30
2023-02-05T11:23:11.914Z,0.90
2023-02-05T11:24:11.891Z,1.30
2023-02-05T11:25:11.871Z,1.00
2023-02-05T11:26:11.862Z,1.20
2023-02-05T11:27:11.853Z,0.80
2023-02-05T11:28:11.878Z,1.10
2023-02-05T11:29:11.826Z,1.00
2023-02-05T11:30:11.835Z,1.30
2023-02-05T11:31:11.912Z,0.80
2023-02-05T11:32:13.749Z,0.80
2023-02-05T11:33:11.800Z,1.50
2023-02-05T11:34:11.797Z,1.60
2023-02-05T11:35:11.783Z,1.10
2023-02-05T11:36:11.766Z,1.40
2023-02-05T11:37:11.763Z,1.00
2023-02-05T11:38:11.795Z,1.20
2023-02-05T11:39:11.754Z,1.00
2023-02-05T11:40:11.750Z,1.30
2023-02-05T11:41:11.718Z,0.80
2023-02-05T11:42:11.722Z,1.10
2023-02-05T11:43:11.702Z,1.00
2023-02-05T11:44:11.704Z,0.70
2023-02-05T11:45:11.691Z,0.70
2023-02-05T11:46:11.698Z,0.90
2023-02-05T11:47:11.667Z,0.90
2023-02-05T11:48:11.661Z,0.80
2023-02-05T11:49:11.648Z,1.20
2023-02-05T11:50:11.640Z,1.00
2023-02-05T11:51:11.627Z,1.30
2023-02-05T11:52:11.614Z,1.20
2023-02-05T11:53:11.609Z,1.20
2023-02-05T11:54:11.603Z,1.00
2023-02-05T11:55:11.607Z,1.00
2023-02-05T11:56:11.599Z,1.20
2023-02-05T11:57:11.580Z,0.90
2023-02-05T11:58:11.567Z,1.70
2023-02-05T11:59:11.564Z,0.90
2023-02-05T12:00:11.552Z,1.00
2023-02-05T12:01:11.543Z,1.10
2023-02-05T12:02:11.615Z,1.10
2023-02-05T12:03:11.563Z,1.00
2023-02-05T12:04:11.519Z,1.10
2023-02-05T12:05:11.507Z,1.20
2023-02-05T12:06:11.499Z,1.10
2023-02-05T12:07:11.490Z,1.10
2023-02-05T12:08:11.485Z,1.30
2023-02-05T12:09:11.475Z,1.30
2023-02-05T12:10:11.466Z,1.00
2023-02-05T12:11:11.459Z,1.00
2023-02-05T12:12:11.457Z,0.90
2023-02-05T12:13:11.438Z,0.90
2023-02-05T12:14:11.423Z,0.80
2023-02-05T12:15:11.426Z,0.80
2023-02-05T12:16:11.428Z,1.30
2023-02-05T12:17:11.404Z,1.10
2023-02-05T12:18:11.414Z,0.80
2023-02-05T12:19:11.379Z,1.20
2023-02-05T12:20:11.376Z,0.80
2023-02-05T12:21:11.355Z,0.90
2023-02-05T12:22:11.364Z,1.00
2023-02-05T12:23:11.347Z,1.10
2023-02-05T12:24:11.336Z,0.90
2023-02-05T12:25:11.323Z,1.50
2023-02-05T12:26:11.313Z,1.30
2023-02-05T12:27:11.321Z,0.80
2023-02-05T12:28:11.344Z,1.00
2023-02-05T12:29:11.292Z,1.60
2023-02-05T12:30:11.279Z,1.00
2023-02-05T12:31:11.281Z,1.00
2023-02-05T12:32:11.255Z,0.90
2023-02-05T12:33:11.263Z,1.30
2023-02-05T12:34:11.250Z,1.40
2023-02-05T12:35:11.235Z,0.90
2023-02-05T12:36:11.245Z,0.80
2023-02-05T12:37:11.225Z,1.90
2023-02-05T12:38:12.412Z,1.10
2023-02-05T12:39:11.201Z,1.50
2023-02-05T12:40:11.184Z,1.10
2023-02-05T12:41:11.169Z,1.60
2023-02-05T12:42:11.167Z,1.10
2023-02-05T12:43:11.155Z,1.10
2023-02-05T12:44:11.147Z,0.80
2023-02-05T12:45:11.142Z,1.20
2023-02-05T12:46:11.161Z,0.80
2023-02-05T12:47:11.123Z,1.40
2023-02-05T12:48:11.107Z,1.80
2023-02-05T12:49:11.102Z,1.20
2023-02-05T12:50:11.092Z,1.70
2023-02-05T12:51:11.073Z,1.10
2023-02-05T12:52:11.083Z,1.10
2023-02-05T12:53:11.070Z,1.10
2023-02-05T12:54:11.054Z,1.40
2023-02-05T12:55:11.050Z,0.90
2023-02-05T12:56:11.035Z,1.40
2023-02-05T12:57:11.034Z,1.30
2023-02-05T12:58:11.023Z,1.70
2023-02-05T12:59:11.009Z,1.40
2023-02-05T13:00:10.999Z,1.50
2023-02-05T13:01:11.014Z,1.50
2023-02-05T13:02:10.971Z,1.10
2023-02-05T13:03:10.977Z,1.30
2023-02-05T13:04:10.967Z,1.00
2023-02-05T13:05:10.951Z,1.30
2023-02-05T13:06:10.945Z,1.60
2023-02-05T13:07:10.946Z,1.70
2023-02-05T13:08:10.926Z,1.70
2023-02-05T13:09:10.916Z,1.40
2023-02-05T13:10:10.905Z,2.00
2023-02-05T13:11:10.908Z,1.90
2023-02-05T13:12:10.891Z,1.40
2023-02-05T13:13:10.886Z,1.60
2023-02-05T13:14:10.881Z,1.30
2023-02-05T13:15:10.863Z,1.60
2023-02-05T13:16:10.955Z,1.20
2023-02-05T13:17:10.843Z,1.40
2023-02-05T13:18:10.833Z,1.10